createdAt,value
2023-05-17T03:02:26.040Z,12.01
2023-05-17T03:04:56.111Z,11.97
2023-05-17T03:07:25.252Z,11.91
2023-05-17T03:09:54.987Z,11.86
2023-05-17T03:12:25.373Z,11.86
2023-05-17T03:14:55.925Z,11.85
2023-05-17T03:17:26.846Z,11.84
2023-05-17T03:19:56.067Z,11.88
2023-05-17T03:22:26.031Z,11.95
2023-05-17T03:24:55.922Z,11.99
2023-05-17T03:27:25.364Z,11.98
2023-05-17T03:29:54.665Z,12.00
2023-05-17T03:32:24.293Z,11.96
2023-05-17T03:34:53.721Z,11.97
2023-05-17T03:37:22.579Z,11.93
2023-05-17T03:39:51.783Z,11.96
2023-05-17T03:42:21.406Z,12.06
2023-05-17T03:44:50.817Z,12.12
2023-05-17T03:47:20.065Z,12.13
2023-05-17T03:49:49.081Z,12.11
2023-05-17T03:52:18.316Z,12.13
2023-05-17T03:54:48.362Z,12.19
2023-05-17T03:57:20.506Z,12.23
2023-05-17T03:59:50.062Z,12.28
2023-05-17T04:02:20.048Z,12.31
2023-05-17T04:04:50.466Z,12.36
2023-05-17T04:07:19.619Z,12.43
2023-05-17T04:09:48.349Z,12.46
2023-05-17T04:12:16.788Z,12.45
2023-05-17T04:14:46.080Z,12.40
2023-05-17T04:17:16.313Z,12.34
2023-05-17T04:19:47.463Z,12.36
2023-05-17T04:22:16.743Z,12.40
2023-05-17T04:24:45.545Z,12.39
2023-05-17T04:27:15.094Z,12.43
2023-05-17T04:29:44.672Z,12.47
2023-05-17T04:32:13.323Z,12.46
2023-05-17T04:34:41.650Z,12.46
2023-05-17T04:37:10.227Z,12.45
2023-05-17T04:39:38.742Z,12.47
2023-05-17T04:42:07.508Z,12.58
2023-05-17T04:44:36.821Z,12.60
2023-05-17T04:47:05.624Z,12.57
2023-05-17T04:49:34.763Z,12.58
2023-05-17T04:52:06.102Z,12.60
2023-05-17T04:54:35.877Z,12.78
2023-05-17T04:57:04.552Z,12.96
2023-05-17T04:59:51.422Z,13.09
2023-05-17T05:02:19.799Z,13.14
2023-05-17T05:04:48.215Z,13.10
2023-05-17T05:07:17.292Z,13.12
2023-05-17T05:09:47.079Z,13.24
2023-05-17T05:12:16.719Z,13.32
2023-05-17T05:14:46.011Z,13.39
2023-05-17T05:17:15.265Z,13.42
2023-05-17T05:19:44.500Z,13.47
2023-05-17T05:22:14.516Z,13.52
2023-05-17T05:24:43.621Z,13.52
2023-05-17T05:27:12.982Z,13.59
2023-05-17T05:29:43.098Z,13.63
2023-05-17T05:32:13.064Z,13.63
2023-05-17T05:34:46.223Z,13.65
2023-05-17T05:37:17.194Z,13.64
2023-05-17T05:39:47.996Z,13.59
2023-05-17T05:42:16.844Z,13.53
2023-05-17T05:44:46.004Z,13.56
2023-05-17T05:47:15.511Z,13.62
2023-05-17T05:49:44.518Z,13.70
2023-05-17T05:52:13.400Z,13.78
2023-05-17T05:54:43.398Z,13.89
2023-05-17T05:57:12.392Z,13.95
2023-05-17T05:59:41.999Z,13.99
2023-05-17T06:02:11.039Z,13.98
2023-05-17T06:04:45.231Z,13.98
2023-05-17T06:07:15.163Z,13.97
2023-05-17T06:09:44.085Z,13.99
2023-05-17T06:12:12.857Z,14.00
2023-05-17T06:14:41.658Z,13.98
2023-05-17T06:17:10.582Z,13.93
2023-05-17T06:19:39.545Z,13.90
2023-05-17T06:22:08.789Z,13.92
2023-05-17T06:24:37.585Z,13.94
2023-05-17T06:27:07.617Z,13.94
2023-05-17T06:29:36.845Z,13.92
2023-05-17T06:32:06.536Z,13.90
2023-05-17T06:34:38.600Z,13.88
2023-05-17T06:37:07.992Z,13.85
2023-05-17T06:39:36.986Z,13.82
2023-05-17T06:42:06.287Z,13.78
2023-05-17T06:44:38.225Z,13.70
2023-05-17T06:47:07.341Z,13.64
2023-05-17T06:49:38.285Z,13.63
2023-05-17T06:52:07.361Z,13.63
2023-05-17T06:54:36.701Z,13.63
2023-05-17T06:57:06.468Z,13.62
2023-05-17T06:59:35.291Z,13.68
2023-05-17T07:02:04.003Z,13.72
2023-05-17T07:04:33.927Z,13.85
2023-05-17T07:07:02.906Z,13.97
2023-05-17T07:09:31.901Z,14.06
2023-05-17T07:12:00.757Z,14.22
2023-05-17T07:14:29.772Z,14.46
2023-05-17T07:16:58.629Z,14.59
2023-05-17T07:19:28.701Z,14.68
2023-05-17T07:21:58.026Z,14.75
2023-05-17T07:24:28.028Z,14.87
2023-05-17T07:26:57.087Z,14.87
2023-05-17T07:29:26.302Z,14.94
2023-05-17T07:31:55.123Z,15.10
2023-05-17T07:34:24.600Z,15.26
2023-05-17T07:36:53.419Z,15.33
2023-05-17T07:39:21.631Z,15.42
2023-05-17T07:41:50.639Z,15.54
2023-05-17T07:44:19.582Z,15.61
2023-05-17T07:46:48.347Z,15.67
2023-05-17T07:49:18.881Z,15.74
2023-05-17T07:51:47.014Z,15.82
2023-05-17T07:54:25.483Z,15.77
2023-05-17T07:56:55.644Z,15.72
2023-05-17T07:59:25.707Z,15.67
2023-05-17T08:01:55.745Z,15.57
2023-05-17T08:04:25.055Z,15.49
2023-05-17T08:06:55.835Z,15.52
2023-05-17T08:09:24.981Z,15.61
2023-05-17T08:11:54.332Z,15.71
2023-05-17T08:14:24.650Z,15.77
2023-05-17T08:16:53.804Z,15.73
2023-05-17T08:19:22.897Z,15.77
2023-05-17T08:21:51.966Z,15.91
2023-05-17T08:24:21.261Z,16.04
2023-05-17T08:26:49.906Z,16.13
2023-05-17T08:29:19.937Z,16.23
2023-05-17T08:31:50.730Z,16.25
2023-05-17T08:34:19.829Z,16.30
2023-05-17T08:36:49.260Z,16.29
2023-05-17T08:39:18.864Z,16.30
2023-05-17T08:41:50.695Z,16.42
2023-05-17T08:44:20.948Z,16.58
2023-05-17T08:46:54.100Z,16.78
2023-05-17T08:49:23.873Z,16.95
2023-05-17T08:51:54.197Z,16.98
2023-05-17T08:54:22.949Z,16.94
2023-05-17T08:56:54.866Z,16.86
2023-05-17T08:59:23.439Z,16.60
2023-05-17T09:01:55.176Z,16.60
2023-05-17T09:04:24.006Z,16.50
2023-05-17T09:06:53.396Z,16.36
2023-05-17T09:09:23.403Z,16.28
2023-05-17T09:11:52.811Z,16.16
2023-05-17T09:14:24.481Z,16.10
2023-05-17T09:16:56.702Z,16.08
2023-05-17T09:19:25.143Z,16.12
2023-05-17T09:21:57.776Z,16.20
2023-05-17T09:24:31.311Z,16.29
2023-05-17T09:27:03.808Z,16.33
2023-05-17T09:29:35.908Z,16.30
2023-05-17T09:32:12.905Z,16.32
2023-05-17T09:34:43.525Z,16.40
2023-05-17T09:37:19.594Z,16.32
2023-05-17T09:39:48.604Z,16.26
2023-05-17T09:42:18.000Z,16.25
2023-05-17T09:44:51.355Z,16.29
2023-05-17T09:47:36.010Z,16.38
2023-05-17T09:50:05.116Z,16.51
2023-05-17T09:52:38.173Z,16.47
2023-05-17T09:55:07.008Z,16.34
2023-05-17T09:57:39.008Z,16.28
2023-05-17T10:00:12.817Z,16.36
2023-05-17T10:02:43.054Z,16.40
2023-05-17T10:05:12.910Z,16.40
2023-05-17T10:07:41.298Z,16.43
2023-05-17T10:10:10.142Z,16.46
2023-05-17T10:12:40.442Z,16.49
2023-05-17T10:15:09.034Z,16.47
2023-05-17T10:17:44.683Z,16.45
2023-05-17T10:20:18.119Z,16.49
2023-05-17T10:22:49.379Z,16.66
2023-05-17T10:25:18.776Z,16.76
2023-05-17T10:27:50.456Z,16.77
2023-05-17T10:30:20.613Z,16.90
2023-05-17T10:32:51.044Z,17.08
2023-05-17T10:35:20.770Z,17.24
2023-05-17T10:37:50.507Z,17.33
2023-05-17T10:40:20.384Z,17.52
2023-05-17T10:42:53.420Z,17.72
2023-05-17T10:45:22.963Z,17.90
2023-05-17T10:47:57.194Z,17.98
2023-05-17T10:50:29.117Z,18.01
2023-05-17T10:52:59.733Z,18.01
2023-05-17T10:55:42.344Z,17.99
2023-05-17T10:58:11.185Z,17.85
2023-05-17T11:00:41.781Z,17.72
2023-05-17T11:03:26.723Z,17.69
2023-05-17T11:06:19.428Z,17.47
2023-05-17T11:09:14.403Z,17.28
2023-05-17T11:12:21.453Z,17.29
2023-05-17T11:14:53.315Z,17.31
2023-05-17T11:17:22.687Z,17.24
2023-05-17T11:20:07.634Z,17.25
2023-05-17T11:22:37.721Z,17.23
2023-05-17T11:25:08.435Z,17.25
2023-05-17T11:27:39.665Z,17.35
2023-05-17T11:30:21.633Z,17.41
2023-05-17T11:32:55.067Z,17.45
2023-05-17T11:35:25.184Z,17.42
2023-05-17T11:37:54.875Z,17.48
2023-05-17T11:40:28.379Z,17.47
2023-05-17T11:43:16.742Z,17.53
2023-05-17T11:45:53.971Z,17.47
2023-05-17T11:48:23.495Z,17.41
2023-05-17T11:50:53.711Z,17.47
2023-05-17T11:53:23.259Z,17.51
2023-05-17T11:55:53.082Z,17.49
2023-05-17T11:58:25.824Z,17.56
2023-05-17T12:00:56.081Z,17.69
2023-05-17T12:03:32.368Z,17.74
2023-05-17T12:06:04.494Z,17.68
2023-05-17T12:08:34.758Z,17.67
2023-05-17T12:11:04.414Z,17.64
2023-05-17T12:13:33.863Z,17.65
2023-05-17T12:16:07.945Z,17.63
2023-05-17T12:18:38.620Z,17.60
2023-05-17T12:21:08.367Z,17.55
2023-05-17T12:23:40.456Z,17.56
2023-05-17T12:26:16.005Z,17.60
2023-05-17T12:29:01.776Z,17.67
2023-05-17T12:31:33.547Z,17.65
2023-05-17T12:34:03.108Z,17.65
2023-05-17T12:36:34.199Z,17.60
2023-05-17T12:39:04.519Z,17.50
2023-05-17T12:41:33.786Z,17.38
2023-05-17T12:44:14.827Z,17.22
2023-05-17T12:46:46.260Z,17.06
2023-05-17T12:49:15.278Z,16.94
2023-05-17T12:51:45.756Z,16.86
2023-05-17T12:54:28.375Z,16.78
2023-05-17T12:56:57.729Z,16.75
2023-05-17T12:59:26.502Z,16.78
2023-05-17T13:01:56.775Z,16.88
2023-05-17T13:04:33.429Z,16.90
2023-05-17T13:07:03.893Z,16.77
2023-05-17T13:09:33.937Z,16.65
2023-05-17T13:12:08.799Z,16.54
2023-05-17T13:14:45.214Z,16.51
2023-05-17T13:17:27.638Z,16.46
2023-05-17T13:19:58.361Z,16.42
2023-05-17T13:22:28.109Z,16.41
2023-05-17T13:24:56.988Z,16.33
2023-05-17T13:27:26.385Z,16.20
2023-05-17T13:29:55.365Z,16.11
2023-05-17T13:32:24.735Z,16.00
2023-05-17T13:34:54.057Z,15.91
2023-05-17T13:37:23.309Z,15.74
2023-05-17T13:39:55.162Z,15.65
2023-05-17T13:42:24.214Z,15.62
2023-05-17T13:44:53.622Z,15.60
2023-05-17T13:47:23.553Z,15.59
2023-05-17T13:49:52.497Z,15.57
2023-05-17T13:52:21.310Z,15.53
2023-05-17T13:54:50.333Z,15.53
2023-05-17T13:57:19.260Z,15.53
2023-05-17T13:59:48.649Z,15.49
2023-05-17T14:02:17.578Z,15.47
2023-05-17T14:04:46.569Z,15.52
2023-05-17T14:07:15.539Z,15.50
2023-05-17T14:09:44.836Z,15.50
2023-05-17T14:12:13.939Z,15.45
2023-05-17T14:14:43.104Z,15.42
2023-05-17T14:17:13.022Z,15.34
2023-05-17T14:19:42.221Z,15.23
2023-05-17T14:22:11.120Z,15.18
2023-05-17T14:24:40.364Z,15.09
2023-05-17T14:27:23.092Z,15.12
2023-05-17T14:29:52.415Z,15.19
2023-05-17T15:16:33.495Z,14.96
2023-05-17T15:19:02.272Z,14.93
2023-05-17T15:21:30.599Z,14.84
2023-05-17T15:23:59.448Z,14.73
2023-05-17T15:26:28.449Z,14.64
2023-05-17T15:28:57.617Z,14.56
2023-05-17T15:31:28.861Z,14.51
2023-05-17T15:37:15.625Z,14.45
2023-05-17T15:39:44.668Z,14.39
2023-05-17T15:42:13.427Z,14.28
2023-05-17T15:44:41.891Z,14.16
2023-05-17T15:47:17.201Z,14.07
2023-05-17T15:49:45.963Z,14.03
2023-05-17T15:52:15.402Z,14.00
2023-05-17T15:54:44.098Z,13.96
2023-05-17T15:57:13.196Z,13.93
2023-05-17T15:59:41.933Z,13.88
2023-05-17T16:02:10.644Z,13.83
2023-05-17T16:04:38.940Z,13.77
2023-05-17T16:07:07.954Z,13.73
2023-05-17T16:09:36.207Z,13.64
2023-05-17T16:12:04.338Z,13.53
2023-05-17T16:14:32.388Z,13.45
2023-05-17T16:17:00.826Z,13.41
2023-05-17T16:19:31.517Z,13.36
2023-05-17T16:22:00.655Z,13.31
2023-05-17T16:24:29.468Z,13.25
2023-05-17T16:26:58.200Z,13.17
2023-05-17T16:29:27.137Z,13.13
2023-05-17T16:31:56.397Z,13.07
2023-05-17T16:34:26.848Z,13.00
2023-05-17T16:36:55.090Z,12.96
2023-05-17T16:39:26.139Z,12.87
2023-05-17T16:41:55.487Z,12.75
2023-05-17T16:44:24.311Z,12.67
2023-05-17T16:46:53.140Z,12.61
2023-05-17T16:49:22.003Z,12.57
2023-05-17T16:51:52.842Z,12.51
2023-05-17T16:54:21.225Z,12.44
2023-05-17T16:56:50.048Z,12.37
2023-05-17T16:59:18.092Z,12.32
2023-05-17T17:01:46.550Z,12.28
2023-05-17T17:04:15.169Z,12.24
2023-05-17T17:06:43.863Z,12.20
2023-05-17T17:09:12.663Z,12.14
2023-05-17T17:11:41.649Z,12.09
2023-05-17T17:14:11.293Z,12.02
2023-05-17T17:16:40.351Z,11.95
2023-05-17T17:19:08.524Z,11.88
2023-05-17T17:21:37.068Z,11.86
2023-05-17T17:24:08.110Z,11.81
2023-05-17T17:26:36.741Z,11.75
2023-05-17T17:29:04.801Z,11.69
2023-05-17T17:31:33.519Z,11.62
2023-05-17T17:34:02.987Z,11.54
2023-05-17T17:36:31.259Z,11.48
2023-05-17T17:39:00.029Z,11.44
2023-05-17T17:41:28.089Z,11.39
2023-05-17T17:43:56.309Z,11.34
2023-05-17T17:46:25.443Z,11.29
2023-05-17T17:48:55.178Z,11.25
2023-05-17T17:51:25.128Z,11.20
2023-05-17T17:53:53.990Z,11.17
2023-05-17T17:56:23.952Z,11.13
2023-05-17T17:58:56.164Z,11.09
2023-05-17T18:01:24.784Z,11.06
2023-05-17T18:03:53.824Z,11.02
2023-05-17T18:06:22.417Z,10.99
2023-05-17T18:08:51.466Z,10.94
2023-05-17T18:11:20.183Z,10.90
2023-05-17T18:13:48.804Z,10.86
2023-05-17T18:16:17.051Z,10.83
2023-05-17T18:18:47.249Z,10.79
2023-05-17T18:21:15.538Z,10.76
2023-05-17T18:23:44.031Z,10.72
2023-05-17T18:26:12.345Z,10.67
2023-05-17T18:28:42.919Z,10.62
2023-05-17T18:31:12.110Z,10.56
2023-05-17T18:33:41.775Z,10.50
2023-05-17T18:36:10.535Z,10.46
2023-05-17T18:38:39.540Z,10.42
2023-05-17T18:41:08.720Z,10.37
2023-05-17T18:43:36.702Z,10.33
2023-05-17T18:46:05.155Z,10.28
2023-05-17T18:48:36.231Z,10.24
2023-05-17T18:51:04.253Z,10.18
2023-05-17T18:53:32.425Z,10.13
2023-05-17T18:56:03.286Z,10.09
2023-05-17T18:58:31.889Z,10.03
2023-05-17T19:01:01.681Z,9.98
2023-05-17T19:03:30.714Z,9.93
2023-05-17T19:05:59.660Z,9.89
2023-05-17T19:08:28.681Z,9.84
2023-05-17T19:10:57.711Z,9.80
2023-05-17T19:13:27.940Z,9.74
2023-05-17T19:15:56.121Z,9.70
2023-05-17T19:18:24.236Z,9.65
2023-05-17T19:20:53.296Z,9.62
2023-05-17T19:23:21.761Z,9.58
2023-05-17T19:25:51.286Z,9.56
2023-05-17T19:28:20.076Z,9.53
2023-05-17T19:30:48.891Z,9.49
2023-05-17T19:33:17.589Z,9.46
2023-05-17T19:35:47.254Z,9.44
2023-05-17T19:38:16.240Z,9.42
2023-05-17T19:40:45.152Z,9.41
2023-05-17T19:43:13.472Z,9.39
2023-05-17T19:45:42.932Z,9.37
2023-05-17T19:48:12.578Z,9.34
2023-05-17T19:50:41.211Z,9.30
2023-05-17T19:53:09.148Z,9.25
2023-05-17T19:55:37.639Z,9.22
2023-05-17T19:58:05.660Z,9.20
2023-05-17T20:00:33.792Z,9.18
2023-05-17T20:03:02.060Z,9.17
2023-05-17T20:05:30.341Z,9.16
2023-05-17T20:07:59.424Z,9.15
2023-05-17T20:12:55.424Z,9.13
2023-05-17T20:15:25.152Z,9.10
2023-05-17T20:17:53.576Z,9.07
2023-05-17T20:20:22.224Z,9.03
2023-05-17T20:22:50.475Z,9.00
2023-05-17T20:25:19.066Z,8.97
2023-05-17T20:27:47.693Z,8.96
2023-05-17T20:30:15.826Z,8.95
2023-05-17T20:32:44.309Z,8.92
2023-05-17T20:35:12.740Z,8.89
2023-05-17T20:37:41.112Z,8.89
2023-05-17T20:40:09.946Z,8.87
2023-05-17T20:42:38.222Z,8.85
2023-05-17T20:45:07.508Z,8.84
2023-05-17T20:47:37.386Z,8.82
2023-05-17T20:50:06.370Z,8.80
2023-05-17T20:52:39.556Z,8.78
2023-05-17T20:55:09.521Z,8.74
2023-05-17T20:57:37.838Z,8.71
2023-05-17T21:00:08.464Z,8.68
2023-05-17T21:02:37.784Z,8.67
2023-05-17T21:05:06.133Z,8.64
2023-05-17T21:07:37.035Z,8.62
2023-05-17T21:10:08.222Z,8.61
2023-05-17T21:12:36.664Z,8.60
2023-05-17T21:15:30.924Z,8.59
2023-05-17T21:17:54.017Z,8.57
2023-05-17T21:20:24.588Z,8.55
2023-05-17T21:22:54.511Z,8.52
2023-05-17T21:25:22.863Z,8.50
2023-05-17T21:27:51.584Z,8.48
2023-05-17T21:30:20.436Z,8.47
2023-05-17T21:32:49.292Z,8.46
2023-05-17T21:35:18.297Z,8.43
2023-05-17T21:37:46.793Z,8.43
2023-05-17T21:40:15.708Z,8.41
2023-05-17T21:42:44.275Z,8.40
2023-05-17T21:45:15.479Z,8.38
2023-05-17T21:47:44.914Z,8.37
2023-05-17T21:50:13.528Z,8.34
2023-05-17T21:52:42.442Z,8.33
2023-05-17T21:55:11.287Z,8.32
2023-05-17T21:57:40.328Z,8.31
2023-05-17T22:00:13.490Z,8.30
2023-05-17T22:02:45.987Z,8.27
2023-05-17T22:05:15.337Z,8.25
2023-05-17T22:07:44.248Z,8.24
2023-05-17T22:10:13.229Z,8.24
2023-05-17T22:12:42.593Z,8.21
2023-05-17T22:15:11.342Z,8.20
2023-05-17T22:17:51.326Z,8.18
2023-05-17T22:20:24.101Z,8.15
2023-05-17T22:22:52.689Z,8.14
2023-05-17T22:25:21.400Z,8.13
2023-05-17T22:27:50.016Z,8.11
2023-05-17T22:30:19.174Z,8.09
2023-05-17T22:32:48.024Z,8.09
2023-05-17T22:35:16.732Z,8.08
2023-05-17T22:37:45.850Z,8.07
2023-05-17T22:40:14.815Z,8.09
2023-05-17T22:42:43.424Z,8.09
2023-05-17T22:45:14.740Z,8.06
2023-05-17T22:47:43.325Z,8.04
2023-05-17T22:50:13.883Z,8.00
2023-05-17T22:52:43.236Z,7.99
2023-05-17T22:55:12.069Z,7.99
2023-05-17T22:57:41.155Z,8.00
2023-05-17T23:00:11.912Z,7.99
2023-05-17T23:02:40.801Z,7.96
2023-05-17T23:05:11.443Z,7.93
2023-05-17T23:07:41.953Z,7.90
2023-05-17T23:10:11.646Z,7.84
2023-05-17T23:12:40.606Z,7.78
2023-05-17T23:15:09.765Z,7.72
2023-05-17T23:17:39.450Z,7.67
2023-05-17T23:20:11.723Z,7.66
2023-05-17T23:22:40.660Z,7.63
2023-05-17T23:25:09.853Z,7.61
2023-05-17T23:27:38.601Z,7.55
2023-05-17T23:30:07.992Z,7.51
2023-05-17T23:32:36.765Z,7.45
2023-05-17T23:35:06.041Z,7.42
2023-05-17T23:37:35.138Z,7.41
2023-05-17T23:40:06.522Z,7.38
2023-05-17T23:42:36.132Z,7.33
2023-05-17T23:45:05.024Z,7.30
2023-05-17T23:47:34.210Z,7.29
2023-05-17T23:50:05.836Z,7.30
2023-05-17T23:52:34.339Z,7.30
2023-05-17T23:55:03.581Z,7.34
2023-05-17T23:57:32.562Z,7.37
